Time;durP1;ratioP1;P1;durP2;ratioP2;P2;SDS_P1;SDS_P2;PMS_P1;PMS_P2;Temp;Humidity;BMP_temperature;BMP_pressure;BME280_temperature;BME280_humidity;BME280_pressure;Samples;Min_cycle;Max_cycle;Signal;HPM_P1;HPM_P2
2021/05/29 00:02:31;;;;;;;21.00;8.45;;;;;;;10.05;77.54;99124.38;2100218;85;21596;-62
2021/05/29 00:05:31;;;;;;;21.45;8.45;;;;;;;10.06;77.43;99126.56;2099864;85;21587;-64
2021/05/29 00:08:32;;;;;;;22.35;9.40;;;;;;;10.11;77.78;99128.92;2099854;84;21062;-64
2021/05/29 00:11:32;;;;;;;24.32;9.95;;;;;;;10.17;77.15;99128.58;2100078;85;21022;-64
2021/05/29 00:14:34;;;;;;;22.75;10.13;;;;;;;10.24;77.14;99131.25;2099950;85;21082;-62
2021/05/29 00:17:34;;;;;;;24.47;9.80;;;;;;;10.23;77.39;99129.11;2146825;83;21037;-63
2021/05/29 00:20:35;;;;;;;22.58;9.45;;;;;;;10.17;77.89;99135.14;2146528;83;21465;-64
2021/05/29 00:23:35;;;;;;;23.87;9.30;;;;;;;10.09;78.27;99138.19;2099891;85;21497;-60
2021/05/29 00:26:36;;;;;;;22.25;9.38;;;;;;;10.03;78.81;99136.73;2146340;83;21005;-60
2021/05/29 00:29:36;;;;;;;22.45;8.58;;;;;;;9.99;78.12;99135.20;2146419;83;21013;-60
2021/05/29 00:32:37;;;;;;;24.10;11.22;;;;;;;9.95;79.18;99134.15;2146083;83;21069;-61
2021/05/29 00:35:38;;;;;;;25.35;11.83;;;;;;;9.92;79.43;99140.39;2146535;83;21010;-63
2021/05/29 00:38:38;;;;;;;25.05;11.60;;;;;;;9.91;79.00;99140.00;2146312;83;21581;-64
2021/05/29 00:41:39;;;;;;;24.32;11.03;;;;;;;9.91;79.30;99134.77;2146336;83;21050;-64
2021/05/29 00:44:39;;;;;;;26.10;11.63;;;;;;;9.87;79.09;99135.88;2146377;83;21046;-65
2021/05/29 00:47:39;;;;;;;23.18;10.90;;;;;;;9.83;79.62;99140.89;2146429;83;20977;-65
2021/05/29 00:53:42;;;;;;;26.75;13.13;;;;;;;9.79;79.64;99136.73;2120353;83;21006;-65
2021/05/29 00:56:43;;;;;;;26.62;12.03;;;;;;;9.81;79.19;99127.88;2146578;83;20998;-62
2021/05/29 00:59:43;;;;;;;24.20;11.05;;;;;;;9.85;79.16;99126.77;2146524;83;21548;-65
2021/05/29 01:02:44;;;;;;;26.52;11.50;;;;;;;9.87;79.19;99131.95;2146318;83;21061;-65
2021/05/29 01:05:45;;;;;;;23.38;10.43;;;;;;;9.86;79.15;99134.18;2146130;83;21072;-64
2021/05/29 01:08:45;;;;;;;25.35;10.70;;;;;;;9.85;79.06;99130.69;2141925;83;21050;-65
2021/05/29 01:11:46;;;;;;;24.02;9.55;;;;;;;9.84;79.40;99134.70;2133380;83;21188;-64
2021/05/29 01:14:52;;;;;;;23.57;10.58;;;;;;;9.81;79.91;99136.19;2076030;86;21105;-64
2021/05/29 01:17:49;;;;;;;23.62;10.43;;;;;;;9.84;80.19;99132.09;2106418;83;21568;-65
2021/05/29 01:20:49;;;;;;;25.08;11.15;;;;;;;9.81;80.14;99136.19;2133621;83;21010;-65
2021/05/29 01:23:50;;;;;;;23.12;10.08;;;;;;;9.74;80.18;99133.06;2133567;83;21010;-63
2021/05/29 01:26:50;;;;;;;23.55;10.30;;;;;;;9.73;80.84;99130.52;2133615;83;21014;-64
2021/05/29 01:29:50;;;;;;;24.10;10.25;;;;;;;9.70;80.51;99128.43;2133607;83;21058;-65
2021/05/29 01:32:51;;;;;;;23.77;10.10;;;;;;;9.70;81.52;99134.14;2133532;83;21615;-65
2021/05/29 01:35:52;;;;;;;23.27;9.73;;;;;;;9.68;81.39;99130.30;2133301;83;21022;-65
2021/05/29 01:38:53;;;;;;;23.40;9.88;;;;;;;9.66;81.76;99135.23;2133270;83;21086;-64
2021/05/29 01:41:53;;;;;;;23.45;9.50;;;;;;;9.62;81.86;99131.91;2133639;83;20999;-65
2021/05/29 01:44:54;;;;;;;24.12;10.05;;;;;;;9.59;81.64;99137.31;2075985;85;21033;-64
2021/05/29 01:47:54;;;;;;;24.63;9.88;;;;;;;9.57;81.82;99136.55;2118137;84;21103;-63
2021/05/29 01:50:55;;;;;;;23.40;9.85;;;;;;;9.53;82.82;99137.16;2118186;84;21014;-62
2021/05/29 01:53:55;;;;;;;23.45;9.40;;;;;;;9.52;82.27;99134.63;2118205;84;21509;-61
2021/05/29 01:56:57;;;;;;;23.60;9.60;;;;;;;9.52;82.43;99136.80;2133343;83;21666;-63
2021/05/29 01:59:57;;;;;;;24.30;9.80;;;;;;;9.54;82.26;99143.27;2076011;86;21057;-62
2021/05/29 02:02:58;;;;;;;24.98;9.33;;;;;;;9.57;81.81;99139.17;2118258;84;21010;-60
2021/05/29 02:05:58;;;;;;;23.50;9.58;;;;;;;9.59;81.54;99136.00;2118118;84;21149;-61
2021/05/29 02:08:59;;;;;;;22.70;9.63;;;;;;;9.63;82.36;99143.25;2123306;83;21556;-62
2021/05/29 02:11:59;;;;;;;24.10;10.43;;;;;;;9.63;81.85;99133.61;2134902;83;21010;-61
2021/05/29 02:15:00;;;;;;;22.82;9.43;;;;;;;9.62;81.40;99122.74;2134882;83;21069;-61
2021/05/29 02:18:00;;;;;;;24.10;9.35;;;;;;;9.62;81.28;99120.12;2134982;83;21022;-62
2021/05/29 02:21:02;;;;;;;24.30;9.58;;;;;;;9.64;81.11;99122.22;2135326;83;21105;-60
2021/05/29 02:24:03;;;;;;;21.62;9.13;;;;;;;9.61;81.41;99126.75;2104801;85;21045;-60
2021/05/29 02:27:03;;;;;;;21.95;9.25;;;;;;;9.58;81.25;99118.59;2104670;85;21552;-61
2021/05/29 02:30:03;;;;;;;21.75;9.18;;;;;;;9.62;81.28;99119.29;2104434;85;21551;-60
2021/05/29 02:33:04;;;;;;;22.45;9.23;;;;;;;9.64;81.28;99123.52;2104270;85;21165;-63
2021/05/29 02:36:05;;;;;;;21.68;9.38;;;;;;;9.63;81.43;99130.99;2104436;85;21029;-60
2021/05/29 02:39:05;;;;;;;22.50;9.35;;;;;;;9.58;81.25;99130.38;2104477;85;21101;-60
2021/05/29 02:42:05;;;;;;;23.80;9.03;;;;;;;9.57;81.98;99134.38;2104679;85;21026;-60
2021/05/29 02:45:06;;;;;;;21.77;8.93;;;;;;;9.54;81.77;99136.25;2104556;85;21030;-60
2021/05/29 02:48:07;;;;;;;24.57;8.90;;;;;;;9.57;81.44;99134.38;2104576;85;21628;-63
2021/05/29 02:51:07;;;;;;;24.70;9.13;;;;;;;9.59;81.40;99136.47;2104307;85;21042;-60
2021/05/29 02:54:08;;;;;;;22.07;9.05;;;;;;;9.59;81.76;99138.62;2104383;85;21041;-60
2021/05/29 02:57:09;;;;;;;22.37;9.23;;;;;;;9.57;81.64;99137.86;2104508;85;21117;-61
2021/05/29 03:00:09;;;;;;;22.10;9.18;;;;;;;9.50;81.31;99138.63;2104473;85;21069;-60
2021/05/29 03:03:10;;;;;;;22.15;8.75;;;;;;;9.47;81.81;99139.27;2104598;85;21505;-61
2021/05/29 03:06:10;;;;;;;21.97;9.28;;;;;;;9.45;82.14;99138.48;2104282;85;21643;-60
2021/05/29 03:09:11;;;;;;;21.45;9.00;;;;;;;9.43;82.12;99146.42;2103018;85;21320;-60
2021/05/29 03:12:12;;;;;;;20.52;8.85;;;;;;;9.42;83.00;99146.50;2146239;83;21034;-62
2021/05/29 03:15:12;;;;;;;23.52;10.30;;;;;;;9.39;83.04;99153.20;2146423;83;21038;-60
2021/05/29 03:18:13;;;;;;;26.27;11.10;;;;;;;9.35;82.89;99152.06;2146454;83;21037;-62
2021/05/29 03:21:13;;;;;;;22.67;9.85;;;;;;;9.33;83.27;99146.03;2146589;83;21619;-62
2021/05/29 03:24:14;;;;;;;21.40;9.23;;;;;;;9.33;82.74;99143.89;2146387;83;21540;-60
2021/05/29 03:27:18;;;;;;;21.52;9.35;;;;;;;9.35;83.37;99152.06;2146110;83;21065;-60
2021/05/29 03:30:16;;;;;;;24.72;9.70;;;;;;;9.40;83.46;99154.91;2120265;83;21030;-60
2021/05/29 03:33:17;;;;;;;23.73;9.38;;;;;;;9.42;83.48;99153.05;2176496;81;21081;-59
2021/05/29 03:36:18;;;;;;;22.73;9.53;;;;;;;9.44;83.41;99153.80;2185889;81;21061;-62
2021/05/29 03:39:19;;;;;;;22.32;9.60;;;;;;;9.47;83.16;99153.67;2185947;81;20994;-60
2021/05/29 03:42:20;;;;;;;23.98;10.63;;;;;;;9.52;83.25;99145.10;2185758;81;21568;-61
2021/05/29 03:45:21;;;;;;;23.67;9.73;;;;;;;9.56;83.16;99145.33;2185522;81;21029;-60
2021/05/29 03:48:22;;;;;;;23.87;9.13;;;;;;;9.57;82.71;99147.03;2185938;81;21072;-61
2021/05/29 03:51:23;;;;;;;23.70;9.98;;;;;;;9.58;83.78;99156.56;2185862;81;21611;-60
2021/05/29 03:54:24;;;;;;;23.98;9.28;;;;;;;9.61;83.57;99154.25;2185455;81;21667;-62
2021/05/29 03:57:25;;;;;;;23.10;9.23;;;;;;;9.63;83.49;99158.97;2185953;81;21564;-63
2021/05/29 04:00:26;;;;;;;23.35;9.68;;;;;;;9.65;83.37;99164.95;2186000;81;21524;-60
2021/05/29 04:03:26;;;;;;;23.92;9.65;;;;;;;9.67;82.78;99170.50;2186085;81;20997;-60
2021/05/29 04:06:27;;;;;;;22.45;10.00;;;;;;;9.76;82.46;99161.80;2185665;81;21021;-60
2021/05/29 04:09:27;;;;;;;24.23;9.93;;;;;;;9.84;82.35;99164.84;2175420;81;21065;-60
2021/05/29 04:12:31;;;;;;;21.55;8.85;;;;;;;9.94;82.25;99163.45;2151739;82;21552;-59
2021/05/29 04:15:31;;;;;;;21.93;8.55;;;;;;;10.01;82.42;99166.12;2135091;83;21061;-60
2021/05/29 04:18:31;;;;;;;23.00;9.78;;;;;;;10.04;82.68;99164.64;2151576;82;21081;-60
2021/05/29 04:21:32;;;;;;;23.85;9.90;;;;;;;10.11;82.55;99165.14;2151886;82;20994;-60
2021/05/29 04:24:32;;;;;;;23.00;9.33;;;;;;;10.13;82.49;99168.55;2153168;83;21022;-60
2021/05/29 04:27:33;;;;;;;25.37;10.10;;;;;;;10.23;82.10;99171.52;2153347;82;21010;-60
2021/05/29 04:30:34;;;;;;;23.67;9.60;;;;;;;10.31;81.50;99175.86;2153338;82;21536;-60
2021/05/29 04:33:34;;;;;;;24.92;9.33;;;;;;;10.43;81.25;99168.30;2153024;83;20993;-60
2021/05/29 04:36:35;;;;;;;24.32;10.05;;;;;;;10.46;80.96;99168.98;2152987;82;20993;-60
2021/05/29 04:39:35;;;;;;;22.52;9.78;;;;;;;10.32;80.78;99175.42;2153116;82;21018;-60
2021/05/29 04:42:36;;;;;;;23.77;9.40;;;;;;;10.19;80.92;99178.69;2153183;82;21021;-60
2021/05/29 04:45:36;;;;;;;22.58;9.05;;;;;;;10.10;80.92;99183.13;2153003;83;21065;-59
2021/05/29 04:48:37;;;;;;;23.38;9.50;;;;;;;10.03;81.78;99190.94;2153085;83;21132;-61
2021/05/29 04:51:37;;;;;;;22.45;8.78;;;;;;;10.01;80.93;99180.54;2153324;82;20986;-61
2021/05/29 04:54:39;;;;;;;23.10;8.83;;;;;;;9.99;82.14;99184.16;2153153;82;20982;-61
2021/05/29 04:57:40;;;;;;;25.37;9.85;;;;;;;9.94;81.58;99196.64;2153510;82;21025;-60
2021/05/29 05:00:40;;;;;;;22.82;8.98;;;;;;;9.87;82.17;99196.14;2153360;82;21524;-61
2021/05/29 05:03:41;;;;;;;23.12;8.90;;;;;;;9.85;81.70;99191.42;2153310;82;21564;-59
2021/05/29 05:06:41;;;;;;;22.75;8.65;;;;;;;9.88;82.08;99192.57;2153309;82;21536;-59
2021/05/29 05:09:41;;;;;;;23.40;9.13;;;;;;;9.88;82.39;99188.64;2160253;81;21128;-60
2021/05/29 05:12:43;;;;;;;22.77;8.50;;;;;;;9.83;82.54;99194.60;2182711;82;21037;-60
2021/05/29 05:15:44;;;;;;;23.67;8.50;;;;;;;9.77;82.93;99197.08;2183024;82;21044;-59
2021/05/29 05:18:44;;;;;;;22.67;7.75;;;;;;;9.71;82.98;99190.82;2182952;82;21093;-60
2021/05/29 05:21:44;;;;;;;20.80;7.72;;;;;;;9.64;83.44;99196.86;2183105;82;21519;-60
2021/05/29 05:24:45;;;;;;;21.00;7.70;;;;;;;9.65;83.68;99188.05;2182775;82;21422;-60
2021/05/29 05:27:45;;;;;;;22.82;8.85;;;;;;;9.65;83.87;99195.08;2183115;81;21016;-60
2021/05/29 05:30:46;;;;;;;22.48;8.38;;;;;;;9.70;84.58;99194.39;2182812;82;20993;-59
2021/05/29 05:33:48;;;;;;;22.67;8.18;;;;;;;9.73;84.56;99190.30;2182722;82;21657;-59
2021/05/29 05:36:48;;;;;;;20.87;7.73;;;;;;;9.78;84.56;99188.27;2135389;83;21057;-60
2021/05/29 05:39:50;;;;;;;20.95;7.70;;;;;;;9.91;84.24;99188.48;2135164;83;21045;-61
2021/05/29 05:42:50;;;;;;;22.10;7.92;;;;;;;10.05;83.88;99181.20;2134915;83;21085;-60
2021/05/29 05:45:50;;;;;;;22.07;7.85;;;;;;;10.11;84.86;99186.11;2135190;83;21005;-59
2021/05/29 05:48:51;;;;;;;21.45;8.05;;;;;;;10.26;84.07;99174.42;2135217;83;21058;-60
2021/05/29 05:51:51;;;;;;;22.13;8.53;;;;;;;10.45;83.12;99176.47;2135221;83;20990;-60
2021/05/29 05:54:52;;;;;;;22.05;8.48;;;;;;;10.55;82.88;99173.71;2135319;83;21037;-60
2021/05/29 05:57:53;;;;;;;23.47;8.00;;;;;;;10.67;82.15;99172.17;2135255;83;21034;-60
2021/05/29 06:00:53;;;;;;;22.58;8.18;;;;;;;10.72;82.20;99174.09;2135261;83;21026;-60
2021/05/29 06:03:54;;;;;;;21.55;8.28;;;;;;;10.89;82.25;99174.93;2135341;83;20986;-59
2021/05/29 06:06:54;;;;;;;21.73;8.15;;;;;;;10.99;81.45;99181.79;2135274;83;21612;-60
2021/05/29 06:09:55;;;;;;;20.57;7.97;;;;;;;10.98;81.34;99180.95;2130861;82;21543;-60
2021/05/29 06:12:55;;;;;;;21.73;7.97;;;;;;;10.98;80.55;99182.75;2116271;84;21033;-60
2021/05/29 06:22:00;;;;;;;21.50;8.08;;;;;;;11.13;80.98;99180.53;2091016;84;21020;-59
2021/05/29 06:25:01;;;;;;;22.30;7.60;;;;;;;11.25;81.16;99184.25;2116509;84;21518;-60
2021/05/29 06:28:02;;;;;;;23.07;7.87;;;;;;;11.32;81.22;99182.09;2116255;84;21555;-62
2021/05/29 06:31:04;;;;;;;22.52;8.00;;;;;;;11.35;80.50;99186.72;2116260;84;21625;-66
2021/05/29 06:34:05;;;;;;;19.73;7.53;;;;;;;11.40;80.15;99182.02;2116439;84;21024;-64
2021/05/29 06:37:05;;;;;;;21.45;7.22;;;;;;;11.63;80.02;99183.77;2116453;84;20985;-64
2021/05/29 06:40:06;;;;;;;19.45;7.65;;;;;;;11.72;79.45;99188.48;2116435;84;20989;-62
2021/05/29 06:43:06;;;;;;;26.07;7.50;;;;;;;11.72;78.25;99184.98;2116369;84;21012;-64
2021/05/29 06:46:07;;;;;;;20.17;7.42;;;;;;;11.80;77.65;99189.33;2116409;84;21049;-64
2021/05/29 06:49:07;;;;;;;24.25;6.90;;;;;;;11.75;78.71;99190.06;2116407;84;21008;-64
2021/05/29 06:52:11;;;;;;;19.67;6.75;;;;;;;11.88;78.32;99187.53;2116398;84;21044;-63
2021/05/29 06:58:38;;;;;;;19.37;6.83;;;;;;;12.12;77.71;99182.59;2090841;84;21120;-63
2021/05/29 07:01:16;;;;;;;18.27;6.60;;;;;;;12.56;76.77;99182.09;2090713;84;21690;-63
2021/05/29 07:04:18;;;;;;;17.77;5.97;;;;;;;12.91;74.16;99182.91;2116170;84;21012;-62
2021/05/29 07:07:18;;;;;;;20.08;6.30;;;;;;;13.26;72.92;99179.74;2116174;84;21044;-64
2021/05/29 07:10:19;;;;;;;16.82;5.40;;;;;;;13.52;72.82;99180.69;2116420;83;21168;-64
2021/05/29 07:13:19;;;;;;;15.78;5.03;;;;;;;13.85;71.95;99169.62;2116289;84;21579;-61
2021/05/29 07:16:21;;;;;;;14.50;4.87;;;;;;;14.08;66.36;99173.78;2116114;84;21037;-65
2021/05/29 07:19:22;;;;;;;16.20;4.67;;;;;;;14.37;70.40;99165.59;2116356;84;21035;-62
2021/05/29 07:22:22;;;;;;;16.10;5.05;;;;;;;14.36;67.59;99187.65;2116345;84;21028;-60
2021/05/29 07:25:23;;;;;;;14.38;4.70;;;;;;;13.96;66.08;99174.62;2116293;84;21112;-63
2021/05/29 07:28:24;;;;;;;13.05;4.00;;;;;;;13.77;66.17;99181.16;2116097;84;21084;-64
2021/05/29 07:31:24;;;;;;;12.47;4.10;;;;;;;13.61;65.48;99187.13;2116434;84;21539;-64
2021/05/29 07:34:25;;;;;;;13.08;4.25;;;;;;;13.44;67.53;99185.13;2116222;84;21566;-61
2021/05/29 07:37:25;;;;;;;15.85;4.03;;;;;;;13.44;67.88;99178.55;2116127;84;21056;-62
2021/05/29 07:40:26;;;;;;;14.50;4.12;;;;;;;13.54;65.80;99177.94;2116133;84;21000;-61
2021/05/29 07:43:26;;;;;;;13.75;4.35;;;;;;;13.66;67.40;99184.55;2116209;84;21143;-63
2021/05/29 07:46:27;;;;;;;12.78;4.17;;;;;;;13.52;67.60;99184.64;2116363;84;21033;-62
2021/05/29 07:49:28;;;;;;;13.35;4.35;;;;;;;13.55;67.94;99180.92;2116239;84;21080;-63
2021/05/29 07:52:28;;;;;;;10.18;3.22;;;;;;;13.68;67.79;99188.39;2116333;84;21036;-61
2021/05/29 07:55:29;;;;;;;11.73;3.40;;;;;;;13.71;64.11;99183.39;2116114;84;21052;-63
2021/05/29 07:58:30;;;;;;;12.93;3.70;;;;;;;13.58;64.05;99176.80;2116203;84;21033;-64
2021/05/29 08:01:30;;;;;;;9.13;3.15;;;;;;;13.51;61.74;99182.94;2112916;84;21036;-66
2021/05/29 08:04:30;;;;;;;12.23;3.55;;;;;;;13.67;63.41;99185.37;2113284;84;21016;-62
2021/05/29 08:07:31;;;;;;;11.95;3.40;;;;;;;13.83;62.39;99177.26;2113046;84;21017;-66
2021/05/29 08:10:32;;;;;;;9.18;3.52;;;;;;;13.97;62.89;99176.31;2121784;83;21050;-61
2021/05/29 08:13:33;;;;;;;10.60;3.65;;;;;;;14.16;62.95;99160.04;2194279;81;21548;-61
2021/05/29 08:16:33;;;;;;;12.15;3.87;;;;;;;14.50;61.27;99158.97;2149449;82;21556;-64
2021/05/29 08:19:34;;;;;;;9.90;3.47;;;;;;;14.71;63.17;99160.53;2194477;81;21500;-65
2021/05/29 08:22:34;;;;;;;11.35;3.90;;;;;;;14.87;61.42;99158.97;2149398;82;21560;-61
2021/05/29 08:25:34;;;;;;;12.82;3.52;;;;;;;14.98;59.84;99156.84;2194481;81;21560;-64
2021/05/29 08:28:36;;;;;;;12.23;3.50;;;;;;;14.96;61.26;99156.95;2149230;83;21005;-65
2021/05/29 08:31:36;;;;;;;8.18;3.33;;;;;;;15.03;56.32;99166.59;2194584;81;21566;-63
2021/05/29 08:34:37;;;;;;;14.98;3.05;;;;;;;14.96;57.85;99158.27;2152823;83;21080;-62
2021/05/29 08:37:40;;;;;;;11.00;3.30;;;;;;;14.94;57.52;99178.69;2153419;83;21097;-64
2021/05/29 08:40:40;;;;;;;;;;;;;;;15.03;56.25;99179.31;2155619;82;21519;-61
2021/05/29 08:43:40;;;;;;;10.60;3.12;;;;;;;15.60;55.53;99162.30;2178396;81;20146;-61
2021/05/29 08:46:40;;;;;;;8.90;3.05;;;;;;;16.09;54.73;99158.55;2144184;82;21081;-61
2021/05/29 08:49:43;;;;;;;10.70;2.90;;;;;;;16.36;53.73;99163.09;2166044;80;21070;-62
2021/05/29 08:52:43;;;;;;;9.53;3.17;;;;;;;16.00;51.22;99166.36;2162553;82;20999;-62
2021/05/29 08:55:44;;;;;;;10.15;3.15;;;;;;;15.59;52.56;99152.22;2214047;80;21647;-62
2021/05/29 08:58:46;;;;;;;14.23;2.95;;;;;;;15.39;55.38;99164.31;2161919;82;21742;-60
2021/05/29 09:04:49;;;;;;;;;;;;;;;14.74;56.14;99186.74;2140347;82;21033;-62
2021/05/29 09:07:50;;;;;;;10.75;3.33;;;;;;;14.66;55.56;99179.36;2138838;83;20148;-68
2021/05/29 09:10:51;;;;;;;8.35;3.05;;;;;;;14.93;57.78;99166.88;2215027;80;21580;-68
2021/05/29 09:13:52;;;;;;;10.80;3.37;;;;;;;15.31;55.69;99181.21;2214727;80;21548;-62
2021/05/29 09:16:52;;;;;;;8.03;3.12;;;;;;;15.70;55.38;99162.44;2213807;80;21077;-61
2021/05/29 09:19:54;;;;;;;8.95;2.92;;;;;;;16.21;53.61;99159.38;2213846;80;21564;-60
2021/05/29 09:22:55;;;;;;;;;;;;;;;16.10;52.77;99167.31;2217002;80;20994;-61
2021/05/29 09:25:56;;;;;;;9.13;3.22;;;;;;;15.64;55.30;99165.08;2214534;80;20544;-62
2021/05/29 09:28:56;;;;;;;9.13;3.20;;;;;;;15.35;54.45;99169.95;2214542;80;21540;-62
2021/05/29 09:31:57;;;;;;;9.83;3.15;;;;;;;15.44;54.98;99161.31;2214755;80;21144;-61
2021/05/29 09:35:01;;;;;;;6.87;2.92;;;;;;;15.69;51.30;99178.80;2214961;80;21042;-61
2021/05/29 09:38:00;;;;;;;;;;;;;;;15.86;52.93;99168.28;2200412;80;21608;-61
2021/05/29 09:41:00;;;;;;;9.15;2.98;;;;;;;15.80;55.26;99166.09;2214861;80;20166;-62
2021/05/29 09:44:01;;;;;;;5.62;2.33;;;;;;;15.68;53.49;99162.56;2214769;80;21049;-61
2021/05/29 09:47:03;;;;;;;5.47;2.42;;;;;;;15.57;51.33;99159.89;2215076;80;20993;-61
2021/05/29 09:50:04;;;;;;;7.78;2.45;;;;;;;15.91;51.45;99162.63;2214962;80;21014;-61
2021/05/29 09:53:05;;;;;;;9.13;2.27;;;;;;;15.81;51.00;99157.70;2214762;80;21082;-66
2021/05/29 09:56:07;;;;;;;4.65;1.90;;;;;;;15.47;53.58;99155.78;2186859;80;21073;-62
2021/05/29 09:59:08;;;;;;;4.25;1.67;;;;;;;15.62;51.29;99161.72;2162108;82;21050;-61
2021/05/29 10:02:09;;;;;;;6.78;2.02;;;;;;;15.74;49.99;99159.44;2140968;83;21051;-62
2021/05/29 10:05:09;;;;;;;2.90;1.30;;;;;;;16.45;49.78;99157.08;2123753;83;21513;-61
2021/05/29 10:08:10;;;;;;;4.72;1.40;;;;;;;16.81;48.61;99155.06;2162127;82;21050;-63
2021/05/29 10:11:10;;;;;;;7.25;1.95;;;;;;;17.10;46.46;99140.75;2140757;83;21055;-61
2021/05/29 10:14:11;;;;;;;7.58;2.08;;;;;;;17.01;47.87;99152.59;2123354;83;21022;-61
2021/05/29 10:17:11;;;;;;;6.40;2.05;;;;;;;16.14;48.37;99168.76;2161984;82;21078;-61
2021/05/29 10:20:12;;;;;;;4.22;1.85;;;;;;;16.08;48.74;99163.95;2141133;83;21047;-61
2021/05/29 10:23:12;;;;;;;4.60;2.27;;;;;;;16.52;50.05;99147.67;2123496;83;21045;-61
2021/05/29 10:26:13;;;;;;;5.03;1.67;;;;;;;16.89;50.57;99154.45;2162013;82;20995;-63
2021/05/29 10:29:13;;;;;;;5.03;1.72;;;;;;;17.10;43.78;99151.35;2141125;83;21025;-61
2021/05/29 10:32:14;;;;;;;3.17;1.65;;;;;;;17.31;42.88;99147.41;2123500;83;21038;-63
2021/05/29 10:35:14;;;;;;;5.85;1.87;;;;;;;17.58;44.17;99147.84;2162086;82;21062;-61
2021/05/29 10:38:15;;;;;;;5.75;2.35;;;;;;;17.97;44.25;99134.33;2141108;83;21015;-61
2021/05/29 10:41:15;;;;;;;4.78;2.30;;;;;;;17.21;45.23;99148.28;2123531;83;21018;-61
2021/05/29 10:44:17;;;;;;;7.33;2.08;;;;;;;16.52;44.60;99165.34;2161932;82;21748;-64
2021/05/29 10:47:17;;;;;;;3.77;1.62;;;;;;;16.58;47.99;99156.44;2140815;83;21026;-62
2021/05/29 10:50:18;;;;;;;4.50;1.57;;;;;;;16.69;46.21;99139.66;2123487;83;21042;-62
2021/05/29 10:53:18;;;;;;;4.20;1.80;;;;;;;17.04;46.38;99147.89;2161901;82;21079;-62
2021/05/29 10:56:19;;;;;;;4.42;1.77;;;;;;;17.44;45.65;99139.26;2140945;83;21003;-64
2021/05/29 10:59:20;;;;;;;6.33;2.12;;;;;;;16.97;44.34;99148.05;2123367;83;20999;-64
2021/05/29 11:02:20;;;;;;;9.60;2.08;;;;;;;16.21;45.00;99154.57;2162175;82;21006;-66
2021/05/29 11:05:21;;;;;;;6.97;2.12;;;;;;;15.80;46.14;99146.25;2140742;83;21625;-68
2021/05/29 11:08:21;;;;;;;6.80;2.00;;;;;;;15.58;47.59;99146.56;2123432;83;21010;-68
2021/05/29 11:11:22;;;;;;;5.97;1.95;;;;;;;15.48;48.42;99144.26;2161996;82;21077;-67
2021/05/29 11:14:22;;;;;;;4.78;1.70;;;;;;;15.79;47.19;99139.77;2215056;80;21101;-64
2021/05/29 11:17:23;;;;;;;6.22;1.98;;;;;;;16.41;46.31;99129.16;2162491;82;21035;-67
2021/05/29 11:20:23;;;;;;;6.47;1.70;;;;;;;17.16;43.29;99130.63;2215102;80;21017;-67
2021/05/29 11:23:24;;;;;;;3.67;1.60;;;;;;;16.67;44.31;99140.78;2162686;82;20998;-63
2021/05/29 11:26:27;;;;;;;3.33;1.35;;;;;;;16.20;45.84;99140.48;2215245;80;21017;-67
2021/05/29 11:29:27;;;;;;;;;;;;;;;16.04;45.16;99133.41;2140518;82;21485;-61
2021/05/29 11:32:28;;;;;;;3.55;1.40;;;;;;;16.54;44.84;99125.05;2138729;83;20155;-67
2021/05/29 11:35:29;;;;;;;3.77;1.65;;;;;;;17.38;44.12;99116.39;2215206;80;21061;-66
2021/05/29 11:41:32;;;;;;;2.87;1.55;;;;;;;17.82;42.94;99123.19;2189259;80;21094;-68
2021/05/29 11:44:33;;;;;;;3.98;1.47;;;;;;;18.07;41.49;99108.30;2162696;82;21569;-67
2021/05/29 11:47:33;;;;;;;3.55;1.47;;;;;;;18.26;43.17;99101.73;2215208;80;21529;-67
2021/05/29 11:50:34;;;;;;;3.10;1.32;;;;;;;18.74;41.98;99102.77;2162538;82;21006;-66
2021/05/29 11:53:34;;;;;;;9.15;1.70;;;;;;;18.64;41.81;99096.13;2214886;80;21025;-68
2021/05/29 11:56:35;;;;;;;3.85;0.98;;;;;;;17.72;39.77;99129.44;2162665;82;20990;-67
2021/05/29 11:59:35;;;;;;;3.47;1.42;;;;;;;17.12;42.29;99104.38;2215070;80;21038;-67
2021/05/29 12:02:35;;;;;;;2.37;1.17;;;;;;;16.60;40.88;99105.50;2162650;82;21003;-68
2021/05/29 12:05:36;;;;;;;2.83;1.35;;;;;;;16.96;44.36;99086.74;2215312;80;20962;-68
2021/05/29 12:08:36;;;;;;;3.60;1.20;;;;;;;17.79;42.44;99106.70;2162685;82;21578;-68
2021/05/29 12:11:37;;;;;;;6.60;1.65;;;;;;;18.13;40.63;99090.03;2210773;80;21592;-68
2021/05/29 12:14:37;;;;;;;2.85;1.52;;;;;;;18.53;41.65;99082.97;2141125;82;21039;-67
2021/05/29 12:17:44;;;;;;;4.15;1.52;;;;;;;18.25;39.27;99088.10;2195899;81;21038;-67
2021/05/29 12:20:40;;;;;;;7.28;1.45;;;;;;;18.78;38.75;99089.56;2172823;81;21015;-65
2021/05/29 12:23:41;;;;;;;4.45;1.20;;;;;;;18.78;38.75;99089.56;2141271;82;21052;-68
2021/05/29 12:26:41;;;;;;;2.37;1.07;;;;;;;18.74;38.68;99084.67;2195946;80;20995;-66
2021/05/29 12:32:44;;;;;;;3.55;1.40;;;;;;;18.98;37.11;99067.02;2172354;81;21027;-67
2021/05/29 12:35:45;;;;;;;3.25;1.22;;;;;;;18.77;40.40;99085.72;2141438;82;21016;-68
2021/05/29 12:38:45;;;;;;;1.98;0.90;;;;;;;18.69;39.04;99073.98;2196105;81;21502;-68
2021/05/29 12:41:45;;;;;;;3.50;1.15;;;;;;;18.74;39.14;99074.05;2141314;82;21589;-68
2021/05/29 12:44:46;;;;;;;2.95;1.02;;;;;;;18.52;37.85;99074.17;2195992;81;21059;-67
2021/05/29 12:47:46;;;;;;;2.58;1.25;;;;;;;19.01;39.02;99048.95;2141046;82;21022;-68
2021/05/29 12:53:49;;;;;;;2.95;1.00;;;;;;;19.02;37.40;99061.73;2172540;81;21031;-67
2021/05/29 12:56:50;;;;;;;1.12;0.70;;;;;;;19.11;40.13;99074.19;2141354;82;21011;-68
2021/05/29 12:59:51;;;;;;;3.60;0.90;;;;;;;19.47;36.55;99072.23;2196030;81;21553;-63
2021/05/29 13:11:59;;;;;;;4.15;1.00;;;;;;;17.29;39.37;99067.65;2177005;80;21053;-63
2021/05/29 13:14:59;;;;;;;2.30;0.98;;;;;;;17.78;38.90;99070.53;2214679;80;21516;-63
2021/05/29 13:17:59;;;;;;;2.75;1.17;;;;;;;17.84;38.91;99073.50;2214764;80;21481;-64
2021/05/29 13:21:00;;;;;;;2.58;1.17;;;;;;;17.18;39.05;99085.77;2214589;80;21469;-68
2021/05/29 13:24:01;;;;;;;6.45;1.20;;;;;;;16.66;39.96;99090.92;2214594;80;21065;-66
2021/05/29 13:27:03;;;;;;;1.82;1.10;;;;;;;16.38;41.14;99086.56;2196724;80;21050;-61
2021/05/29 13:30:04;;;;;;;4.10;1.20;;;;;;;16.05;41.95;99097.57;2214751;80;20966;-67
2021/05/29 13:33:04;;;;;;;5.92;1.27;;;;;;;15.86;43.66;99103.48;2214589;80;21028;-61
2021/05/29 13:36:05;;;;;;;5.60;1.90;;;;;;;15.79;45.37;99101.41;2214762;80;21516;-61
2021/05/29 13:39:05;;;;;;;5.70;2.15;;;;;;;15.42;48.47;99116.49;2214901;80;21504;-67
2021/05/29 13:42:06;;;;;;;7.75;2.30;;;;;;;14.82;51.67;99109.11;2214590;80;21480;-65
2021/05/29 13:45:11;;;;;;;7.65;2.25;;;;;;;14.52;52.57;99127.55;2214542;80;21010;-68
2021/05/29 13:48:09;;;;;;;;;;;;;;;14.40;52.87;99125.79;2200092;80;21010;-62
2021/05/29 13:51:09;;;;;;;8.18;2.45;;;;;;;14.19;53.25;99125.52;2214605;80;20518;-63
2021/05/29 13:54:10;;;;;;;9.65;2.87;;;;;;;14.09;55.52;99142.47;2161780;82;21075;-66
2021/05/29 13:57:10;;;;;;;7.70;2.50;;;;;;;13.96;57.90;99145.13;2140687;83;21055;-67
2021/05/29 14:00:12;;;;;;;9.08;2.22;;;;;;;13.87;56.71;99135.23;2123396;83;21050;-61
2021/05/29 14:03:12;;;;;;;8.57;2.60;;;;;;;13.93;58.30;99130.84;2161916;82;21058;-63
2021/05/29 14:09:15;;;;;;;;;;;;;;;13.99;59.39;99128.25;2110124;84;21027;-64
2021/05/29 14:12:16;;;;;;;7.50;2.65;;;;;;;13.91;57.85;99139.84;2161929;82;20497;-67
2021/05/29 14:15:16;;;;;;;8.75;2.60;;;;;;;13.78;58.92;99130.13;2140981;82;20996;-67
2021/05/29 14:18:17;;;;;;;9.88;2.98;;;;;;;13.94;59.20;99122.48;2123410;83;21120;-68
2021/05/29 14:21:18;;;;;;;8.03;2.58;;;;;;;13.97;58.24;99131.48;2162007;82;21069;-66
2021/05/29 14:24:18;;;;;;;8.28;2.70;;;;;;;13.89;57.03;99124.09;2141062;83;21040;-66
2021/05/29 14:27:19;;;;;;;6.05;1.90;;;;;;;13.93;57.41;99120.30;2123595;83;21026;-68
2021/05/29 14:30:19;;;;;;;8.40;2.42;;;;;;;14.00;57.51;99131.27;2161936;82;21058;-68
2021/05/29 14:33:20;;;;;;;9.78;3.08;;;;;;;14.12;56.75;99130.87;2141018;83;20983;-66
2021/05/29 14:36:22;;;;;;;5.08;2.40;;;;;;;14.22;56.24;99113.42;2123626;83;21027;-67
2021/05/29 14:39:22;;;;;;;;;;;;;;;14.38;54.08;99123.27;2164531;82;21521;-67
2021/05/29 14:42:23;;;;;;;5.75;2.17;;;;;;;14.46;55.91;99122.70;2162104;82;20177;-68
2021/05/29 14:45:24;;;;;;;8.75;2.10;;;;;;;14.76;53.24;99128.05;2140968;83;21098;-67